createdAt,value
2018-12-29T00:01:34.598Z,160.50
2018-12-29T00:04:06.248Z,156.50
2018-12-29T00:06:37.725Z,142.00
2018-12-29T00:09:09.290Z,161.75
2018-12-29T00:11:40.622Z,156.75
2018-12-29T00:14:12.507Z,153.75
2018-12-29T00:16:44.305Z,168.25
2018-12-29T00:19:15.816Z,154.50
2018-12-29T00:21:47.075Z,148.75
2018-12-29T00:24:19.002Z,155.50
2018-12-29T00:26:50.514Z,156.00
2018-12-29T00:29:22.539Z,154.50
2018-12-29T00:31:54.086Z,166.50
2018-12-29T00:34:25.763Z,162.50
2018-12-29T00:36:57.134Z,152.75
2018-12-29T00:39:29.035Z,139.50
2018-12-29T00:42:00.234Z,162.25
2018-12-29T00:44:31.660Z,156.00
2018-12-29T00:47:02.991Z,147.00
2018-12-29T00:49:34.358Z,157.25
2018-12-29T00:52:06.626Z,157.50
2018-12-29T00:54:38.240Z,167.00
2018-12-29T00:57:09.543Z,160.50
2018-12-29T00:59:41.661Z,166.50
2018-12-29T01:02:12.866Z,152.75
2018-12-29T01:04:44.567Z,167.25
2018-12-29T01:07:15.719Z,182.00
2018-12-29T01:09:47.297Z,179.75
2018-12-29T01:12:18.492Z,159.75
2018-12-29T01:14:49.739Z,181.75
2018-12-29T01:17:21.595Z,188.00
2018-12-29T01:19:53.241Z,198.25
2018-12-29T01:22:24.671Z,194.00
2018-12-29T01:24:56.399Z,193.50
2018-12-29T01:27:27.558Z,190.00
2018-12-29T01:30:00.299Z,199.25
2018-12-29T01:32:32.807Z,217.00
2018-12-29T01:35:04.608Z,206.75
2018-12-29T01:37:35.775Z,214.75
2018-12-29T01:40:07.505Z,222.25
2018-12-29T01:42:39.062Z,224.75
2018-12-29T01:45:17.138Z,226.50
2018-12-29T01:47:43.661Z,241.00
2018-12-29T01:50:14.965Z,216.75
2018-12-29T01:52:46.321Z,224.75
2018-12-29T01:55:17.781Z,249.00
2018-12-29T01:57:49.017Z,259.25
2018-12-29T02:00:21.268Z,246.00
2018-12-29T02:02:52.586Z,271.50
2018-12-29T02:05:23.931Z,246.75
2018-12-29T02:07:55.047Z,257.50
2018-12-29T02:10:26.571Z,252.75
2018-12-29T02:12:57.684Z,259.75
2018-12-29T02:15:29.841Z,273.25
2018-12-29T02:18:01.630Z,271.00
2018-12-29T02:20:33.225Z,279.25
2018-12-29T02:23:04.276Z,313.00
2018-12-29T02:25:36.061Z,320.00
2018-12-29T02:28:07.660Z,330.50
2018-12-29T02:30:39.985Z,336.75
2018-12-29T02:33:11.448Z,371.50
2018-12-29T02:35:42.935Z,347.00
2018-12-29T02:38:13.958Z,378.25
2018-12-29T02:40:45.296Z,425.00
2018-12-29T02:43:16.464Z,440.00
2018-12-29T02:45:47.806Z,304.75
2018-12-29T02:48:19.224Z,321.75
2018-12-29T02:50:50.788Z,337.75
2018-12-29T02:53:22.055Z,420.20
2018-12-29T02:55:53.506Z,454.00
2018-12-29T02:58:25.706Z,443.60
2018-12-29T03:00:58.092Z,441.60
2018-12-29T03:03:29.673Z,415.00
2018-12-29T03:06:01.605Z,423.00
2018-12-29T03:08:37.377Z,400.80
2018-12-29T03:11:08.986Z,423.80
2018-12-29T03:13:40.529Z,401.80
2018-12-29T03:16:12.093Z,415.20
2018-12-29T03:18:45.106Z,401.80
2018-12-29T03:21:16.491Z,396.80
2018-12-29T03:23:47.715Z,405.20
2018-12-29T03:26:19.310Z,401.50
2018-12-29T03:28:51.010Z,383.00
2018-12-29T03:31:22.862Z,374.50
2018-12-29T03:33:54.271Z,381.00
2018-12-29T03:36:25.710Z,372.00
2018-12-29T03:38:56.887Z,332.25
2018-12-29T03:41:28.755Z,324.75
2018-12-29T03:44:00.310Z,360.50
2018-12-29T03:46:32.102Z,327.00
2018-12-29T03:49:03.662Z,300.75
2018-12-29T03:51:35.774Z,317.25
2018-12-29T03:54:07.175Z,299.25
2018-12-29T03:56:42.034Z,278.75
2018-12-29T03:59:13.535Z,274.00
2018-12-29T04:01:45.430Z,261.75
2018-12-29T04:04:16.857Z,239.75
2018-12-29T04:06:48.529Z,236.00
2018-12-29T04:09:36.243Z,237.50
2018-12-29T04:12:22.206Z,226.00
2018-12-29T04:14:53.804Z,226.00
2018-12-29T04:17:25.390Z,228.00
2018-12-29T04:19:57.042Z,210.00
2018-12-29T04:22:28.701Z,217.00
2018-12-29T04:25:00.384Z,220.75
2018-12-29T04:27:32.070Z,209.25
2018-12-29T04:30:03.421Z,218.00
2018-12-29T04:32:35.529Z,204.25
2018-12-29T04:35:07.183Z,207.00
2018-12-29T04:37:38.804Z,205.25
2018-12-29T04:40:10.025Z,204.00
2018-12-29T04:42:41.510Z,208.50
2018-12-29T04:45:13.001Z,212.25
2018-12-29T04:47:44.371Z,215.00
2018-12-29T04:50:15.782Z,205.50
2018-12-29T04:52:47.345Z,196.75
2018-12-29T04:55:18.546Z,202.00
2018-12-29T04:57:49.983Z,205.75
2018-12-29T05:00:21.446Z,182.75
2018-12-29T05:02:53.615Z,175.50
2018-12-29T05:05:25.224Z,175.25
2018-12-29T05:07:56.797Z,183.50
2018-12-29T05:10:28.061Z,174.00
2018-12-29T05:12:59.510Z,187.60
2018-12-29T05:15:30.839Z,167.40
2018-12-29T05:18:02.692Z,169.20
2018-12-29T05:20:34.576Z,175.20
2018-12-29T05:23:06.340Z,169.40
2018-12-29T05:25:37.586Z,150.20
2018-12-29T05:28:09.247Z,147.40
2018-12-29T05:30:40.733Z,145.60
2018-12-29T05:33:12.522Z,142.20
2018-12-29T05:35:43.942Z,137.00
2018-12-29T05:38:15.788Z,142.20
2018-12-29T05:40:47.184Z,127.60
2018-12-29T05:43:18.658Z,110.20
2018-12-29T05:45:50.225Z,96.40
2018-12-29T05:48:22.065Z,121.00
2018-12-29T05:50:53.275Z,120.20
2018-12-29T05:53:24.892Z,118.40
2018-12-29T05:55:56.214Z,119.00
2018-12-29T05:58:27.982Z,117.40
2018-12-29T06:00:59.508Z,99.20
2018-12-29T06:03:31.368Z,106.00
2018-12-29T06:06:05.236Z,100.40
2018-12-29T06:08:37.671Z,98.00
2018-12-29T06:11:09.077Z,110.80
2018-12-29T06:13:41.152Z,113.40
2018-12-29T06:16:12.223Z,116.80
2018-12-29T06:18:50.448Z,85.40
2018-12-29T06:21:24.399Z,100.80
2018-12-29T06:23:56.374Z,92.00
2018-12-29T06:26:27.910Z,103.80
2018-12-29T06:28:59.444Z,100.40
2018-12-29T06:31:30.566Z,107.20
2018-12-29T06:34:02.505Z,98.40
2018-12-29T06:36:33.712Z,97.40
2018-12-29T06:39:11.303Z,91.40
2018-12-29T06:41:42.839Z,97.20
2018-12-29T06:44:14.209Z,96.40
2018-12-29T06:46:45.726Z,92.60
2018-12-29T06:49:17.479Z,91.40
2018-12-29T06:51:49.098Z,99.60
2018-12-29T06:54:21.792Z,91.60
2018-12-29T06:56:56.266Z,101.80
2018-12-29T06:59:27.795Z,91.20
2018-12-29T07:01:59.023Z,96.80
2018-12-29T07:04:34.155Z,87.20
2018-12-29T07:07:12.587Z,81.60
2018-12-29T07:09:44.822Z,83.00
2018-12-29T07:12:21.181Z,83.80
2018-12-29T07:14:57.630Z,83.00
2018-12-29T07:17:30.369Z,87.40
2018-12-29T07:20:01.727Z,100.00
2018-12-29T07:22:34.473Z,94.20
2018-12-29T07:25:07.251Z,80.80
2018-12-29T07:27:38.448Z,89.00
2018-12-29T07:30:11.581Z,86.80
2018-12-29T07:32:43.176Z,77.60
2018-12-29T07:35:16.918Z,93.20
2018-12-29T07:37:48.712Z,89.00
2018-12-29T07:40:20.171Z,74.60
2018-12-29T07:42:51.519Z,88.60
2018-12-29T07:45:23.014Z,77.60
2018-12-29T07:47:54.250Z,98.40
2018-12-29T07:50:25.536Z,79.80
2018-12-29T07:52:57.129Z,88.80
2018-12-29T07:55:29.346Z,87.00
2018-12-29T07:58:00.743Z,87.20
2018-12-29T08:00:31.887Z,85.80
2018-12-29T08:03:03.318Z,82.00
2018-12-29T08:05:35.021Z,82.40
2018-12-29T08:08:06.221Z,75.60
2018-12-29T08:10:38.822Z,82.40
2018-12-29T08:13:10.672Z,79.00
2018-12-29T08:15:42.192Z,78.60
2018-12-29T08:18:14.637Z,78.20
2018-12-29T08:20:46.430Z,78.80
2018-12-29T08:23:17.560Z,82.40
2018-12-29T08:25:49.262Z,80.20
2018-12-29T08:28:23.598Z,82.80
2018-12-29T08:30:55.424Z,79.60
2018-12-29T08:33:26.896Z,74.60
2018-12-29T08:36:04.993Z,75.20
2018-12-29T08:38:37.451Z,76.20
2018-12-29T08:41:09.021Z,70.80
2018-12-29T08:43:40.249Z,73.40
2018-12-29T08:46:11.938Z,77.40
2018-12-29T08:48:44.667Z,87.60
2018-12-29T08:51:15.733Z,169.40
2018-12-29T08:53:47.756Z,109.40
2018-12-29T08:56:19.149Z,164.60
2018-12-29T08:58:50.372Z,143.80
2018-12-29T09:01:21.528Z,87.40
2018-12-29T09:03:52.871Z,135.20
2018-12-29T09:06:24.516Z,137.40
2018-12-29T09:08:55.958Z,97.00
2018-12-29T09:14:46.306Z,97.40
2018-12-29T09:17:19.131Z,72.80
2018-12-29T09:20:08.542Z,79.60
2018-12-29T09:22:41.836Z,81.40
2018-12-29T09:25:13.254Z,79.80
2018-12-29T09:27:45.321Z,68.60
2018-12-29T09:30:17.032Z,75.80
2018-12-29T09:32:48.237Z,77.20
2018-12-29T09:35:19.415Z,74.40
2018-12-29T09:37:51.463Z,71.80
2018-12-29T09:40:23.174Z,72.00
2018-12-29T09:42:55.962Z,80.20
2018-12-29T09:45:27.914Z,80.20
2018-12-29T09:47:59.636Z,75.00
2018-12-29T09:50:32.177Z,76.00
2018-12-29T09:53:03.583Z,79.20
2018-12-29T09:55:35.178Z,79.80
2018-12-29T09:58:06.402Z,86.60
2018-12-29T10:00:37.867Z,71.40
2018-12-29T10:03:09.387Z,85.80
2018-12-29T10:05:43.031Z,75.20
2018-12-29T10:08:16.068Z,84.00
2018-12-29T10:10:48.527Z,72.20
2018-12-29T10:13:21.970Z,84.00
2018-12-29T10:15:53.448Z,81.00
2018-12-29T10:18:24.971Z,74.60
2018-12-29T10:20:56.262Z,86.80
2018-12-29T10:23:27.814Z,81.40
2018-12-29T10:25:59.034Z,76.80
2018-12-29T10:28:30.216Z,84.20
2018-12-29T10:31:01.746Z,80.00
2018-12-29T10:33:32.924Z,87.20
2018-12-29T10:36:04.211Z,96.80
2018-12-29T10:38:37.021Z,81.40
2018-12-29T10:41:08.509Z,81.00
2018-12-29T10:43:39.777Z,70.20
2018-12-29T10:46:11.156Z,80.00
2018-12-29T10:48:42.768Z,69.60
2018-12-29T10:51:14.022Z,79.00
2018-12-29T10:53:45.601Z,79.80
2018-12-29T10:56:16.830Z,76.80
2018-12-29T10:58:48.378Z,76.20
2018-12-29T11:01:20.029Z,82.40
2018-12-29T11:03:51.225Z,80.00
2018-12-29T11:06:22.541Z,77.60
2018-12-29T11:08:54.588Z,79.80
2018-12-29T11:11:26.344Z,81.00
2018-12-29T11:13:57.725Z,77.20
2018-12-29T11:16:31.219Z,82.00
2018-12-29T11:19:02.645Z,72.20
2018-12-29T11:21:33.793Z,80.60
2018-12-29T11:24:05.369Z,75.00
2018-12-29T11:26:36.731Z,80.40
2018-12-29T11:29:08.025Z,80.60
2018-12-29T11:31:39.687Z,77.80
2018-12-29T11:34:11.371Z,71.40
2018-12-29T11:36:42.772Z,78.00
2018-12-29T11:39:14.615Z,79.20
2018-12-29T11:41:45.917Z,76.60
2018-12-29T11:44:17.588Z,75.80
2018-12-29T11:46:49.338Z,77.00
2018-12-29T11:49:20.930Z,81.00
2018-12-29T11:51:52.960Z,84.00
2018-12-29T11:54:25.292Z,90.60
2018-12-29T11:56:57.256Z,76.60
2018-12-29T11:59:28.653Z,77.40
2018-12-29T12:02:00.083Z,78.40
2018-12-29T12:04:32.162Z,75.20
2018-12-29T12:07:03.745Z,75.00
2018-12-29T12:09:36.020Z,74.80
2018-12-29T12:12:07.442Z,79.00
2018-12-29T12:14:39.117Z,80.60
2018-12-29T12:17:10.868Z,91.80
2018-12-29T12:19:42.368Z,93.20
2018-12-29T12:22:13.900Z,94.00
2018-12-29T12:24:45.377Z,111.80
2018-12-29T12:27:17.068Z,118.80
2018-12-29T12:29:49.018Z,111.20
2018-12-29T12:32:21.124Z,121.20
2018-12-29T12:34:53.360Z,135.80
2018-12-29T12:37:24.679Z,149.20
2018-12-29T12:39:56.849Z,136.00
2018-12-29T12:42:28.597Z,142.60
2018-12-29T12:45:00.223Z,141.00
2018-12-29T12:47:31.784Z,140.60
2018-12-29T12:50:03.553Z,147.20
2018-12-29T12:52:35.308Z,152.00
2018-12-29T12:55:06.821Z,149.20
2018-12-29T12:57:38.186Z,145.00
2018-12-29T13:00:10.357Z,149.00
2018-12-29T13:02:42.875Z,146.00
2018-12-29T13:05:14.228Z,152.00
2018-12-29T13:07:45.592Z,163.25
2018-12-29T13:10:16.972Z,168.00
2018-12-29T13:12:48.600Z,177.75
2018-12-29T13:15:21.747Z,198.50
2018-12-29T13:17:53.410Z,220.25
2018-12-29T13:20:25.141Z,236.25
2018-12-29T13:22:57.257Z,208.75
2018-12-29T13:25:29.150Z,249.75
2018-12-29T13:28:01.361Z,245.25
2018-12-29T13:30:32.837Z,250.00
2018-12-29T13:33:04.918Z,264.25
2018-12-29T13:35:36.477Z,279.25
2018-12-29T13:38:08.184Z,300.25
2018-12-29T13:40:41.069Z,321.75
2018-12-29T13:43:12.646Z,328.50
2018-12-29T13:45:44.339Z,365.00
2018-12-29T13:48:20.506Z,345.25
2018-12-29T13:50:49.374Z,369.00
2018-12-29T13:53:20.950Z,385.80
2018-12-29T13:55:52.273Z,393.20
2018-12-29T13:58:23.861Z,385.20
2018-12-29T14:00:55.774Z,382.60
2018-12-29T14:03:27.661Z,398.20
2018-12-29T14:05:59.304Z,378.40
2018-12-29T14:08:31.256Z,374.60
2018-12-29T14:11:03.314Z,374.00
2018-12-29T14:13:35.130Z,377.20
2018-12-29T14:16:07.102Z,393.80
2018-12-29T14:18:39.510Z,391.40
2018-12-29T14:21:11.845Z,397.80
2018-12-29T14:23:44.491Z,397.20
2018-12-29T14:26:16.074Z,391.20
2018-12-29T14:28:47.809Z,420.00
2018-12-29T14:31:19.459Z,427.40
2018-12-29T14:33:51.047Z,446.20
2018-12-29T14:36:23.133Z,437.00
2018-12-29T14:38:54.363Z,444.40
2018-12-29T14:41:26.412Z,417.25
2018-12-29T14:43:57.706Z,436.80
2018-12-29T14:46:29.418Z,440.80
2018-12-29T14:49:00.992Z,441.20
2018-12-29T14:51:32.461Z,442.20
2018-12-29T14:54:03.728Z,460.60
2018-12-29T14:56:35.306Z,477.20
2018-12-29T14:59:07.160Z,515.83
2018-12-29T15:01:38.844Z,505.40
2018-12-29T15:04:10.061Z,499.60
2018-12-29T15:06:41.575Z,498.40
2018-12-29T15:09:12.927Z,506.80
2018-12-29T15:11:44.754Z,517.00
2018-12-29T15:14:17.149Z,523.00
2018-12-29T15:16:49.495Z,515.33
2018-12-29T15:19:22.925Z,530.40
2018-12-29T15:21:54.477Z,519.33
2018-12-29T15:24:26.261Z,527.60
2018-12-29T15:26:57.728Z,527.00
2018-12-29T15:29:29.206Z,519.40
2018-12-29T15:32:00.648Z,522.00
2018-12-29T15:34:32.610Z,591.20
2018-12-29T15:37:04.059Z,571.00
2018-12-29T15:39:35.612Z,537.20
2018-12-29T15:42:07.501Z,562.00
2018-12-29T15:44:38.720Z,556.00
2018-12-29T15:47:10.440Z,508.17
2018-12-29T15:49:41.968Z,549.50
2018-12-29T15:52:13.445Z,611.20
2018-12-29T15:54:45.369Z,625.83
2018-12-29T15:57:16.862Z,539.20
2018-12-29T15:59:48.862Z,520.80
2018-12-29T16:02:20.366Z,463.00
2018-12-29T16:04:53.865Z,456.60
2018-12-29T16:07:26.151Z,415.40
2018-12-29T16:09:57.481Z,413.00
2018-12-29T16:12:29.194Z,402.60
2018-12-29T16:15:00.613Z,385.80
2018-12-29T16:17:32.367Z,420.60
2018-12-29T16:20:03.908Z,401.80
2018-12-29T16:22:35.223Z,411.20
2018-12-29T16:25:06.803Z,415.20
2018-12-29T16:27:38.552Z,401.80
2018-12-29T16:30:10.482Z,435.60
2018-12-29T16:32:42.373Z,432.00
2018-12-29T16:35:14.261Z,435.00
2018-12-29T16:37:45.744Z,421.80
2018-12-29T16:40:16.969Z,418.80
2018-12-29T16:42:48.977Z,396.75
2018-12-29T16:45:20.409Z,393.00
2018-12-29T16:47:51.742Z,404.25
2018-12-29T16:50:23.156Z,472.80
2018-12-29T16:52:54.580Z,602.20
2018-12-29T16:55:25.899Z,473.00
2018-12-29T16:57:57.484Z,447.20
2018-12-29T17:00:29.344Z,465.40
2018-12-29T17:03:01.182Z,523.00
2018-12-29T17:05:32.716Z,496.20
2018-12-29T17:08:04.481Z,467.20
2018-12-29T17:10:36.164Z,497.40
2018-12-29T17:13:08.141Z,460.50
2018-12-29T17:15:39.658Z,491.25
2018-12-29T17:18:11.470Z,480.50
2018-12-29T17:20:43.194Z,476.00
2018-12-29T17:23:14.655Z,495.20
2018-12-29T17:25:46.182Z,485.00
2018-12-29T17:28:17.580Z,502.80
2018-12-29T17:30:49.107Z,506.40
2018-12-29T17:33:20.467Z,495.60
2018-12-29T17:35:52.784Z,518.40
2018-12-29T17:38:24.590Z,509.60
2018-12-29T17:40:56.356Z,502.40
2018-12-29T17:43:28.492Z,516.80
2018-12-29T17:46:00.087Z,498.60
2018-12-29T17:48:31.474Z,500.40
2018-12-29T17:51:03.159Z,508.40
2018-12-29T17:53:34.843Z,503.40
2018-12-29T17:56:06.411Z,524.60
2018-12-29T17:58:37.999Z,508.60
2018-12-29T18:01:09.662Z,530.60
2018-12-29T18:03:40.971Z,508.00
2018-12-29T18:06:12.452Z,514.00
2018-12-29T18:08:43.615Z,542.60
2018-12-29T18:11:14.881Z,510.00
2018-12-29T18:13:46.991Z,521.60
2018-12-29T18:16:18.575Z,479.40
2018-12-29T18:18:50.224Z,522.80
2018-12-29T18:21:21.468Z,567.80
2018-12-29T18:23:53.064Z,511.60
2018-12-29T18:26:24.385Z,524.80
2018-12-29T18:28:56.074Z,541.60
2018-12-29T18:31:27.341Z,537.80
2018-12-29T18:33:58.775Z,537.40
2018-12-29T18:36:30.573Z,531.80
2018-12-29T18:39:02.944Z,536.40
2018-12-29T18:41:34.916Z,543.80
2018-12-29T18:44:07.507Z,540.40
2018-12-29T18:46:39.299Z,530.40
2018-12-29T18:49:10.694Z,545.60
2018-12-29T18:51:42.428Z,534.80
2018-12-29T18:54:13.906Z,554.20
2018-12-29T18:56:45.805Z,556.60
2018-12-29T18:59:18.005Z,569.60
2018-12-29T19:01:57.370Z,558.40
2018-12-29T19:04:22.756Z,528.60
2018-12-29T19:06:54.439Z,543.80
2018-12-29T19:09:25.785Z,540.20
2018-12-29T19:11:57.335Z,535.60
2018-12-29T19:14:29.165Z,522.40
2018-12-29T19:17:00.615Z,545.00
2018-12-29T19:19:32.319Z,533.20
2018-12-29T19:22:03.591Z,534.80
2018-12-29T19:24:34.915Z,535.40
2018-12-29T19:27:06.515Z,541.40
2018-12-29T19:29:38.160Z,507.80
2018-12-29T19:32:09.939Z,517.80
2018-12-29T19:34:41.900Z,524.80
2018-12-29T19:37:13.773Z,540.00
2018-12-29T19:39:45.747Z,502.00
2018-12-29T19:42:17.108Z,550.80
2018-12-29T19:44:49.026Z,511.80
2018-12-29T19:47:20.411Z,493.50
2018-12-29T19:49:53.788Z,512.40
2018-12-29T19:52:25.549Z,504.80
2018-12-29T19:54:56.876Z,484.50
2018-12-29T19:57:28.978Z,520.00
2018-12-29T20:00:00.397Z,491.25
2018-12-29T20:02:32.165Z,488.80
2018-12-29T20:05:03.904Z,495.20
2018-12-29T20:07:35.491Z,488.20
2018-12-29T20:10:07.248Z,471.20
2018-12-29T20:12:39.725Z,472.20
2018-12-29T20:15:11.449Z,477.20
2018-12-29T20:17:43.029Z,442.00
2018-12-29T20:20:14.398Z,466.80
2018-12-29T20:22:45.886Z,467.00
2018-12-29T20:25:17.552Z,468.80
2018-12-29T20:27:49.094Z,463.20
2018-12-29T20:30:20.588Z,456.60
2018-12-29T20:32:58.991Z,415.25
2018-12-29T20:35:24.928Z,414.25
2018-12-29T20:37:56.877Z,401.00
2018-12-29T20:40:28.979Z,358.50
2018-12-29T20:43:00.373Z,360.50
2018-12-29T20:45:32.060Z,364.50
2018-12-29T20:48:03.603Z,373.50
2018-12-29T20:50:34.944Z,381.75
2018-12-29T20:53:06.514Z,389.25
2018-12-29T20:55:37.884Z,364.75
2018-12-29T20:58:09.179Z,385.00
2018-12-29T21:00:40.722Z,350.25
2018-12-29T21:03:12.468Z,370.00
2018-12-29T21:05:43.805Z,376.00
2018-12-29T21:08:15.315Z,369.00
2018-12-29T21:10:46.522Z,351.75
2018-12-29T21:13:18.045Z,330.25
2018-12-29T21:15:49.835Z,322.50
2018-12-29T21:18:21.484Z,337.75
2018-12-29T21:20:52.724Z,332.00
2018-12-29T21:23:24.551Z,323.75
2018-12-29T21:25:55.803Z,337.50
2018-12-29T21:28:27.456Z,333.25
2018-12-29T21:30:59.020Z,344.00
2018-12-29T21:33:30.778Z,345.75
2018-12-29T21:36:02.043Z,339.25
2018-12-29T21:38:33.448Z,335.50
2018-12-29T21:41:05.449Z,347.75
2018-12-29T21:43:37.014Z,336.00
2018-12-29T21:46:09.014Z,327.00
2018-12-29T21:48:40.407Z,332.75
2018-12-29T21:51:11.751Z,337.25
2018-12-29T21:53:42.992Z,330.25
2018-12-29T21:56:14.689Z,336.50
2018-12-29T21:58:46.046Z,325.00
2018-12-29T22:01:17.526Z,321.50
2018-12-29T22:03:48.880Z,318.50
2018-12-29T22:06:21.821Z,326.00
2018-12-29T22:08:53.332Z,307.50
2018-12-29T22:11:24.997Z,301.25
2018-12-29T22:13:56.659Z,287.50
2018-12-29T22:16:28.488Z,303.75
2018-12-29T22:19:00.072Z,300.25
2018-12-29T22:21:31.786Z,300.00
2018-12-29T22:24:03.288Z,301.00
2018-12-29T22:26:35.007Z,301.75
2018-12-29T22:29:06.467Z,327.00
2018-12-29T22:31:37.925Z,306.75
2018-12-29T22:34:10.196Z,290.25
2018-12-29T22:36:41.725Z,287.50
2018-12-29T22:39:13.530Z,290.00
2018-12-29T22:41:45.456Z,282.00
2018-12-29T22:44:17.280Z,295.50
2018-12-29T22:46:49.439Z,290.75
2018-12-29T22:49:21.017Z,291.00
2018-12-29T22:51:52.436Z,264.50
2018-12-29T22:54:24.039Z,278.75
2018-12-29T22:56:56.025Z,290.25
2018-12-29T22:59:27.339Z,277.50
2018-12-29T23:01:58.929Z,273.50
2018-12-29T23:04:30.663Z,278.25
2018-12-29T23:07:02.362Z,266.50
2018-12-29T23:09:33.794Z,263.50
2018-12-29T23:12:06.423Z,258.00
2018-12-29T23:14:37.987Z,248.00
2018-12-29T23:17:10.349Z,266.25
2018-12-29T23:19:42.014Z,269.50
2018-12-29T23:22:13.564Z,273.25
2018-12-29T23:24:45.331Z,287.00
2018-12-29T23:27:17.086Z,254.00
2018-12-29T23:29:48.505Z,246.00
2018-12-29T23:32:19.886Z,266.25
2018-12-29T23:34:51.142Z,249.75
2018-12-29T23:37:22.578Z,240.25
2018-12-29T23:39:54.502Z,252.25
2018-12-29T23:42:25.895Z,258.75
2018-12-29T23:44:57.319Z,256.50
2018-12-29T23:47:29.542Z,245.25
2018-12-29T23:50:00.866Z,250.50
2018-12-29T23:52:32.352Z,239.00
2018-12-29T23:55:03.754Z,239.25
2018-12-29T23:57:35.313Z,255.00
